sensor_id;sensor_type;location;lat;lon;timestamp;P1;durP1;ratioP1;P2;durP2;ratioP2
75025;SDS011;63591;50.080;8.286;2022-09-27T06:39:26;2.57;;;0.77;;
75025;SDS011;63591;50.080;8.286;2022-09-27T06:41:53;5.63;;;0.80;;
75025;SDS011;63591;50.080;8.286;2022-09-27T06:44:21;17.45;;;1.83;;
75025;SDS011;63591;50.080;8.286;2022-09-27T06:46:48;6.00;;;1.17;;
75025;SDS011;63591;50.080;8.286;2022-09-27T06:49:14;6.70;;;1.10;;
75025;SDS011;63591;50.080;8.286;2022-09-27T06:51:39;6.63;;;1.20;;
75025;SDS011;63591;50.080;8.286;2022-09-27T06:54:04;5.10;;;1.00;;
75025;SDS011;63591;50.080;8.286;2022-09-27T06:56:30;14.43;;;1.15;;
75025;SDS011;63591;50.080;8.286;2022-09-27T06:58:55;6.67;;;0.80;;
75025;SDS011;63591;50.080;8.286;2022-09-27T07:01:39;20.57;;;3.73;;
75025;SDS011;63591;50.080;8.286;2022-09-27T07:04:04;47.40;;;9.53;;
75025;SDS011;63591;50.080;8.286;2022-09-27T07:06:31;44.70;;;9.13;;
75025;SDS011;63591;50.080;8.286;2022-09-27T07:08:56;34.97;;;7.37;;
75025;SDS011;63591;50.080;8.286;2022-09-27T07:11:22;33.70;;;6.93;;
75025;SDS011;63591;50.080;8.286;2022-09-27T07:13:47;27.93;;;6.80;;
75025;SDS011;63591;50.080;8.286;2022-09-27T07:16:13;29.42;;;6.88;;
75025;SDS011;63591;50.080;8.286;2022-09-27T07:18:39;30.90;;;6.83;;
75025;SDS011;63591;50.080;8.286;2022-09-27T07:21:06;29.58;;;6.60;;
75025;SDS011;63591;50.080;8.286;2022-09-27T07:23:32;31.00;;;7.28;;
75025;SDS011;63591;50.080;8.286;2022-09-27T07:26:04;27.00;;;6.47;;
75025;SDS011;63591;50.080;8.286;2022-09-27T07:28:32;30.48;;;6.75;;
75025;SDS011;63591;50.080;8.286;2022-09-27T07:30:58;23.88;;;5.85;;
75025;SDS011;63591;50.080;8.286;2022-09-27T07:33:24;23.87;;;5.33;;
75025;SDS011;63591;50.080;8.286;2022-09-27T07:35:49;25.15;;;6.15;;
75025;SDS011;63591;50.080;8.286;2022-09-27T07:38:15;20.97;;;5.60;;
75025;SDS011;63591;50.080;8.286;2022-09-27T07:40:40;22.13;;;5.30;;
75025;SDS011;63591;50.080;8.286;2022-09-27T07:43:06;22.73;;;5.67;;
75025;SDS011;63591;50.080;8.286;2022-09-27T07:45:33;24.30;;;5.40;;
75025;SDS011;63591;50.080;8.286;2022-09-27T07:47:59;23.83;;;5.82;;
75025;SDS011;63591;50.080;8.286;2022-09-27T07:50:24;19.33;;;5.13;;
75025;SDS011;63591;50.080;8.286;2022-09-27T07:52:50;20.67;;;5.53;;
75025;SDS011;63591;50.080;8.286;2022-09-27T07:55:16;24.73;;;5.27;;
75025;SDS011;63591;50.080;8.286;2022-09-27T07:57:43;20.25;;;5.30;;
75025;SDS011;63591;50.080;8.286;2022-09-27T08:00:12;18.10;;;4.97;;
75025;SDS011;63591;50.080;8.286;2022-09-27T08:02:40;19.73;;;4.88;;
75025;SDS011;63591;50.080;8.286;2022-09-27T08:05:06;19.30;;;4.87;;
75025;SDS011;63591;50.080;8.286;2022-09-27T08:07:31;17.42;;;4.90;;
75025;SDS011;63591;50.080;8.286;2022-09-27T08:09:57;17.45;;;4.68;;
75025;SDS011;63591;50.080;8.286;2022-09-27T08:12:23;16.37;;;4.30;;
75025;SDS011;63591;50.080;8.286;2022-09-27T08:14:48;15.17;;;4.00;;
75025;SDS011;63591;50.080;8.286;2022-09-27T08:17:14;16.40;;;4.53;;
75025;SDS011;63591;50.080;8.286;2022-09-27T08:19:40;14.63;;;4.13;;
75025;SDS011;63591;50.080;8.286;2022-09-27T08:22:08;13.60;;;4.20;;
75025;SDS011;63591;50.080;8.286;2022-09-27T08:24:33;16.95;;;4.60;;
75025;SDS011;63591;50.080;8.286;2022-09-27T08:26:59;15.07;;;4.20;;
75025;SDS011;63591;50.080;8.286;2022-09-27T08:29:25;14.52;;;3.80;;
75025;SDS011;63591;50.080;8.286;2022-09-27T08:31:51;13.77;;;4.03;;
75025;SDS011;63591;50.080;8.286;2022-09-27T08:34:17;15.93;;;3.88;;
75025;SDS011;63591;50.080;8.286;2022-09-27T08:36:43;13.20;;;3.50;;
75025;SDS011;63591;50.080;8.286;2022-09-27T08:39:08;13.23;;;4.00;;
75025;SDS011;63591;50.080;8.286;2022-09-27T08:41:37;12.27;;;3.93;;
75025;SDS011;63591;50.080;8.286;2022-09-27T08:44:10;14.95;;;4.03;;
75025;SDS011;63591;50.080;8.286;2022-09-27T08:49:21;10.85;;;3.40;;
75025;SDS011;63591;50.080;8.286;2022-09-27T08:51:50;12.70;;;3.27;;
75025;SDS011;63591;50.080;8.286;2022-09-27T08:54:22;10.55;;;3.00;;
75025;SDS011;63591;50.080;8.286;2022-09-27T08:56:51;12.52;;;3.17;;
75025;SDS011;63591;50.080;8.286;2022-09-27T08:59:18;10.68;;;3.10;;
75025;SDS011;63591;50.080;8.286;2022-09-27T09:01:50;12.15;;;3.38;;
75025;SDS011;63591;50.080;8.286;2022-09-27T09:04:23;12.77;;;3.30;;
75025;SDS011;63591;50.080;8.286;2022-09-27T09:18:08;6.67;;;2.00;;
75025;SDS011;63591;50.080;8.286;2022-09-27T09:29:11;7.82;;;2.17;;
75025;SDS011;63591;50.080;8.286;2022-09-27T09:32:04;4.83;;;1.70;;
75025;SDS011;63591;50.080;8.286;2022-09-27T09:34:44;6.00;;;2.22;;
75025;SDS011;63591;50.080;8.286;2022-09-27T09:37:20;7.35;;;1.98;;
75025;SDS011;63591;50.080;8.286;2022-09-27T09:39:55;6.75;;;1.80;;
75025;SDS011;63591;50.080;8.286;2022-09-27T09:42:30;8.18;;;2.28;;
75025;SDS011;63591;50.080;8.286;2022-09-27T09:45:12;6.00;;;1.87;;
75025;SDS011;63591;50.080;8.286;2022-09-27T09:50:28;6.10;;;2.00;;
75025;SDS011;63591;50.080;8.286;2022-09-27T09:53:20;5.57;;;1.88;;
75025;SDS011;63591;50.080;8.286;2022-09-27T09:55:54;6.22;;;1.70;;
75025;SDS011;63591;50.080;8.286;2022-09-27T09:58:27;6.03;;;1.70;;
75025;SDS011;63591;50.080;8.286;2022-09-27T10:01:16;6.05;;;1.77;;
75025;SDS011;63591;50.080;8.286;2022-09-27T10:03:44;5.50;;;1.70;;
75025;SDS011;63591;50.080;8.286;2022-09-27T10:06:10;7.60;;;1.80;;
75025;SDS011;63591;50.080;8.286;2022-09-27T10:08:37;5.45;;;1.70;;
75025;SDS011;63591;50.080;8.286;2022-09-27T10:11:03;5.30;;;1.60;;
75025;SDS011;63591;50.080;8.286;2022-09-27T10:13:29;7.17;;;2.00;;
75025;SDS011;63591;50.080;8.286;2022-09-27T10:16:06;7.80;;;1.90;;
75025;SDS011;63591;50.080;8.286;2022-09-27T10:18:38;5.25;;;1.50;;
75025;SDS011;63591;50.080;8.286;2022-09-27T10:21:06;5.28;;;1.40;;
75025;SDS011;63591;50.080;8.286;2022-09-27T10:23:36;5.18;;;1.50;;
75025;SDS011;63591;50.080;8.286;2022-09-27T10:26:29;6.23;;;1.63;;
75025;SDS011;63591;50.080;8.286;2022-09-27T10:28:55;5.30;;;1.60;;
75025;SDS011;63591;50.080;8.286;2022-09-27T10:31:21;4.73;;;1.60;;
75025;SDS011;63591;50.080;8.286;2022-09-27T10:33:54;4.28;;;1.60;;
75025;SDS011;63591;50.080;8.286;2022-09-27T10:36:28;5.30;;;1.42;;
75025;SDS011;63591;50.080;8.286;2022-09-27T10:38:57;6.03;;;1.40;;
75025;SDS011;63591;50.080;8.286;2022-09-27T10:41:35;5.60;;;1.70;;
75025;SDS011;63591;50.080;8.286;2022-09-27T10:44:17;4.68;;;1.30;;
75025;SDS011;63591;50.080;8.286;2022-09-27T10:46:46;5.28;;;1.50;;
75025;SDS011;63591;50.080;8.286;2022-09-27T10:49:28;6.88;;;1.70;;
75025;SDS011;63591;50.080;8.286;2022-09-27T10:51:59;5.32;;;1.45;;
75025;SDS011;63591;50.080;8.286;2022-09-27T10:54:29;5.60;;;1.40;;
75025;SDS011;63591;50.080;8.286;2022-09-27T10:57:01;5.30;;;1.52;;
75025;SDS011;63591;50.080;8.286;2022-09-27T10:59:29;4.93;;;1.60;;
75025;SDS011;63591;50.080;8.286;2022-09-27T11:01:58;5.95;;;1.77;;
75025;SDS011;63591;50.080;8.286;2022-09-27T11:04:35;5.32;;;1.65;;
75025;SDS011;63591;50.080;8.286;2022-09-27T11:07:10;5.20;;;1.33;;
75025;SDS011;63591;50.080;8.286;2022-09-27T11:12:18;4.43;;;1.45;;
75025;SDS011;63591;50.080;8.286;2022-09-27T11:17:31;4.20;;;1.40;;
75025;SDS011;63591;50.080;8.286;2022-09-27T11:20:05;4.77;;;1.40;;
75025;SDS011;63591;50.080;8.286;2022-09-27T11:22:58;4.68;;;1.63;;
75025;SDS011;63591;50.080;8.286;2022-09-27T11:31:49;4.90;;;1.50;;
75025;SDS011;63591;50.080;8.286;2022-09-27T11:42:37;4.50;;;1.55;;
75025;SDS011;63591;50.080;8.286;2022-09-27T11:48:02;4.23;;;1.40;;
75025;SDS011;63591;50.080;8.286;2022-09-27T11:50:51;5.03;;;1.27;;
75025;SDS011;63591;50.080;8.286;2022-09-27T12:01:11;4.77;;;1.60;;
75025;SDS011;63591;50.080;8.286;2022-09-27T12:04:00;4.15;;;1.50;;
75025;SDS011;63591;50.080;8.286;2022-09-27T12:09:02;4.45;;;1.30;;
75025;SDS011;63591;50.080;8.286;2022-09-27T12:11:44;3.97;;;1.45;;
75025;SDS011;63591;50.080;8.286;2022-09-27T12:14:34;3.77;;;1.30;;
75025;SDS011;63591;50.080;8.286;2022-09-27T12:17:04;4.05;;;1.23;;
75025;SDS011;63591;50.080;8.286;2022-09-27T12:19:37;4.18;;;1.20;;
75025;SDS011;63591;50.080;8.286;2022-09-27T12:22:09;4.13;;;1.38;;
75025;SDS011;63591;50.080;8.286;2022-09-27T12:24:38;3.97;;;1.30;;
75025;SDS011;63591;50.080;8.286;2022-09-27T12:27:08;4.47;;;1.20;;
75025;SDS011;63591;50.080;8.286;2022-09-27T12:29:40;3.88;;;1.35;;
75025;SDS011;63591;50.080;8.286;2022-09-27T12:34:38;3.80;;;1.25;;
75025;SDS011;63591;50.080;8.286;2022-09-27T12:37:23;3.88;;;1.20;;
75025;SDS011;63591;50.080;8.286;2022-09-27T12:40:03;3.77;;;1.17;;
75025;SDS011;63591;50.080;8.286;2022-09-27T12:43:15;4.43;;;1.40;;
75025;SDS011;63591;50.080;8.286;2022-09-27T12:49:09;3.47;;;1.20;;
75025;SDS011;63591;50.080;8.286;2022-09-27T12:51:55;4.15;;;1.13;;
75025;SDS011;63591;50.080;8.286;2022-09-27T13:02:59;3.70;;;1.23;;
75025;SDS011;63591;50.080;8.286;2022-09-27T13:08:48;4.13;;;1.23;;
75025;SDS011;63591;50.080;8.286;2022-09-27T13:13:48;3.88;;;1.15;;
75025;SDS011;63591;50.080;8.286;2022-09-27T13:16:19;3.55;;;1.20;;
75025;SDS011;63591;50.080;8.286;2022-09-27T13:18:48;3.70;;;1.37;;
75025;SDS011;63591;50.080;8.286;2022-09-27T13:29:50;3.53;;;1.20;;
75025;SDS011;63591;50.080;8.286;2022-09-27T13:32:36;3.22;;;1.00;;
75025;SDS011;63591;50.080;8.286;2022-09-27T13:37:53;3.40;;;1.17;;
75025;SDS011;63591;50.080;8.286;2022-09-27T13:45:38;3.83;;;1.20;;
75025;SDS011;63591;50.080;8.286;2022-09-27T13:48:15;3.72;;;1.20;;
75025;SDS011;63591;50.080;8.286;2022-09-27T13:50:50;3.25;;;1.20;;
75025;SDS011;63591;50.080;8.286;2022-09-27T13:55:54;3.63;;;1.23;;
75025;SDS011;63591;50.080;8.286;2022-09-27T14:01:22;4.35;;;1.30;;
75025;SDS011;63591;50.080;8.286;2022-09-27T14:04:00;3.33;;;1.00;;
75025;SDS011;63591;50.080;8.286;2022-09-27T14:06:31;3.20;;;1.20;;
75025;SDS011;63591;50.080;8.286;2022-09-27T14:09:02;3.05;;;1.02;;
75025;SDS011;63591;50.080;8.286;2022-09-27T14:11:35;3.38;;;1.10;;
75025;SDS011;63591;50.080;8.286;2022-09-27T14:14:03;3.67;;;1.05;;
75025;SDS011;63591;50.080;8.286;2022-09-27T14:16:32;2.93;;;1.10;;
75025;SDS011;63591;50.080;8.286;2022-09-27T14:19:00;3.67;;;1.30;;
75025;SDS011;63591;50.080;8.286;2022-09-27T14:21:36;3.53;;;1.10;;
75025;SDS011;63591;50.080;8.286;2022-09-27T14:27:02;2.88;;;1.00;;
75025;SDS011;63591;50.080;8.286;2022-09-27T14:30:27;4.13;;;1.20;;
75025;SDS011;63591;50.080;8.286;2022-09-27T14:32:47;3.45;;;1.20;;
75025;SDS011;63591;50.080;8.286;2022-09-27T14:38:00;3.10;;;1.02;;
75025;SDS011;63591;50.080;8.286;2022-09-27T14:40:27;3.05;;;1.00;;
75025;SDS011;63591;50.080;8.286;2022-09-27T14:42:55;3.13;;;1.10;;
75025;SDS011;63591;50.080;8.286;2022-09-27T14:45:25;2.90;;;1.17;;
75025;SDS011;63591;50.080;8.286;2022-09-27T14:47:59;3.30;;;1.10;;
75025;SDS011;63591;50.080;8.286;2022-09-27T14:50:25;3.40;;;1.10;;
75025;SDS011;63591;50.080;8.286;2022-09-27T14:52:55;2.90;;;1.10;;
75025;SDS011;63591;50.080;8.286;2022-09-27T14:55:24;2.83;;;1.00;;
75025;SDS011;63591;50.080;8.286;2022-09-27T14:57:53;2.97;;;1.00;;
75025;SDS011;63591;50.080;8.286;2022-09-27T15:00:22;3.20;;;1.10;;
75025;SDS011;63591;50.080;8.286;2022-09-27T15:02:50;3.10;;;1.00;;
75025;SDS011;63591;50.080;8.286;2022-09-27T15:05:20;3.28;;;1.10;;
75025;SDS011;63591;50.080;8.286;2022-09-27T15:07:53;4.10;;;1.30;;
75025;SDS011;63591;50.080;8.286;2022-09-27T15:10:22;3.83;;;1.10;;
75025;SDS011;63591;50.080;8.286;2022-09-27T15:12:52;5.85;;;1.63;;
75025;SDS011;63591;50.080;8.286;2022-09-27T15:15:22;5.43;;;1.50;;
75025;SDS011;63591;50.080;8.286;2022-09-27T15:17:49;5.97;;;1.50;;
75025;SDS011;63591;50.080;8.286;2022-09-27T15:20:20;7.90;;;1.88;;
75025;SDS011;63591;50.080;8.286;2022-09-27T15:22:46;5.60;;;1.45;;
75025;SDS011;63591;50.080;8.286;2022-09-27T15:25:17;3.77;;;1.30;;
75025;SDS011;63591;50.080;8.286;2022-09-27T15:27:46;7.80;;;1.50;;
75025;SDS011;63591;50.080;8.286;2022-09-27T15:30:17;5.07;;;1.50;;
75025;SDS011;63591;50.080;8.286;2022-09-27T15:32:52;5.75;;;1.58;;
75025;SDS011;63591;50.080;8.286;2022-09-27T15:35:24;7.78;;;1.60;;
75025;SDS011;63591;50.080;8.286;2022-09-27T15:37:51;6.90;;;1.50;;
75025;SDS011;63591;50.080;8.286;2022-09-27T15:40:55;4.80;;;1.20;;
75025;SDS011;63591;50.080;8.286;2022-09-27T15:43:20;3.80;;;1.40;;
75025;SDS011;63591;50.080;8.286;2022-09-27T15:49:32;5.00;;;1.40;;
75025;SDS011;63591;50.080;8.286;2022-09-27T15:51:45;5.27;;;1.60;;
75025;SDS011;63591;50.080;8.286;2022-09-27T15:54:12;4.10;;;1.30;;
75025;SDS011;63591;50.080;8.286;2022-09-27T15:56:38;3.70;;;1.30;;
75025;SDS011;63591;50.080;8.286;2022-09-27T15:59:04;4.80;;;1.43;;
75025;SDS011;63591;50.080;8.286;2022-09-27T16:01:31;5.60;;;1.60;;
75025;SDS011;63591;50.080;8.286;2022-09-27T16:03:57;4.77;;;1.40;;
75025;SDS011;63591;50.080;8.286;2022-09-27T16:06:23;4.50;;;1.50;;
75025;SDS011;63591;50.080;8.286;2022-09-27T16:08:51;4.70;;;1.30;;
75025;SDS011;63591;50.080;8.286;2022-09-27T16:11:16;4.30;;;1.40;;
75025;SDS011;63591;50.080;8.286;2022-09-27T16:13:42;4.20;;;1.30;;
75025;SDS011;63591;50.080;8.286;2022-09-27T16:16:11;4.55;;;1.30;;
75025;SDS011;63591;50.080;8.286;2022-09-27T16:18:42;4.50;;;1.40;;
75025;SDS011;63591;50.080;8.286;2022-09-27T16:21:08;4.67;;;1.37;;
75025;SDS011;63591;50.080;8.286;2022-09-27T16:23:33;4.85;;;1.23;;
75025;SDS011;63591;50.080;8.286;2022-09-27T16:25:59;4.30;;;1.27;;
75025;SDS011;63591;50.080;8.286;2022-09-27T16:28:24;4.97;;;1.30;;
75025;SDS011;63591;50.080;8.286;2022-09-27T16:30:49;3.57;;;1.30;;
75025;SDS011;63591;50.080;8.286;2022-09-27T16:33:15;4.50;;;1.30;;
75025;SDS011;63591;50.080;8.286;2022-09-27T16:35:40;4.80;;;1.40;;
75025;SDS011;63591;50.080;8.286;2022-09-27T16:38:05;3.80;;;1.23;;
75025;SDS011;63591;50.080;8.286;2022-09-27T16:40:31;3.97;;;1.30;;
75025;SDS011;63591;50.080;8.286;2022-09-27T16:42:56;3.73;;;1.20;;
75025;SDS011;63591;50.080;8.286;2022-09-27T16:45:22;4.93;;;1.30;;
75025;SDS011;63591;50.080;8.286;2022-09-27T16:47:47;4.17;;;1.40;;
75025;SDS011;63591;50.080;8.286;2022-09-27T16:50:13;4.57;;;1.20;;
75025;SDS011;63591;50.080;8.286;2022-09-27T16:52:57;3.83;;;1.30;;
75025;SDS011;63591;50.080;8.286;2022-09-27T16:55:24;3.72;;;1.30;;
75025;SDS011;63591;50.080;8.286;2022-09-27T16:57:52;3.58;;;1.30;;
75025;SDS011;63591;50.080;8.286;2022-09-27T17:00:18;3.17;;;1.37;;
75025;SDS011;63591;50.080;8.286;2022-09-27T17:02:47;5.13;;;1.42;;
75025;SDS011;63591;50.080;8.286;2022-09-27T17:05:13;3.73;;;1.20;;
75025;SDS011;63591;50.080;8.286;2022-09-27T17:07:39;4.05;;;1.20;;
75025;SDS011;63591;50.080;8.286;2022-09-27T17:10:05;4.00;;;1.20;;
75025;SDS011;63591;50.080;8.286;2022-09-27T17:12:31;4.03;;;1.40;;
75025;SDS011;63591;50.080;8.286;2022-09-27T17:14:57;3.90;;;1.20;;
75025;SDS011;63591;50.080;8.286;2022-09-27T17:17:22;3.93;;;1.43;;
75025;SDS011;63591;50.080;8.286;2022-09-27T17:19:47;4.30;;;1.23;;
75025;SDS011;63591;50.080;8.286;2022-09-27T17:22:13;4.10;;;1.40;;
75025;SDS011;63591;50.080;8.286;2022-09-27T17:24:38;4.63;;;1.40;;
75025;SDS011;63591;50.080;8.286;2022-09-27T17:27:03;3.80;;;1.40;;
75025;SDS011;63591;50.080;8.286;2022-09-27T17:29:30;3.50;;;1.13;;
75025;SDS011;63591;50.080;8.286;2022-09-27T17:31:55;3.23;;;1.10;;
75025;SDS011;63591;50.080;8.286;2022-09-27T17:34:20;4.37;;;1.30;;
75025;SDS011;63591;50.080;8.286;2022-09-27T17:36:46;3.87;;;1.40;;
75025;SDS011;63591;50.080;8.286;2022-09-27T17:39:14;3.60;;;1.20;;
75025;SDS011;63591;50.080;8.286;2022-09-27T17:41:40;3.17;;;1.10;;
75025;SDS011;63591;50.080;8.286;2022-09-27T17:44:08;4.00;;;1.33;;
75025;SDS011;63591;50.080;8.286;2022-09-27T17:46:36;3.50;;;1.30;;
75025;SDS011;63591;50.080;8.286;2022-09-27T17:49:02;3.37;;;1.17;;
75025;SDS011;63591;50.080;8.286;2022-09-27T17:51:47;3.40;;;1.30;;
75025;SDS011;63591;50.080;8.286;2022-09-27T17:54:14;3.72;;;1.40;;
75025;SDS011;63591;50.080;8.286;2022-09-27T17:56:42;5.10;;;1.38;;
75025;SDS011;63591;50.080;8.286;2022-09-27T17:59:08;3.37;;;1.20;;
75025;SDS011;63591;50.080;8.286;2022-09-27T18:01:35;3.30;;;1.40;;
75025;SDS011;63591;50.080;8.286;2022-09-27T18:04:02;4.25;;;1.30;;
75025;SDS011;63591;50.080;8.286;2022-09-27T18:06:29;4.15;;;1.40;;
75025;SDS011;63591;50.080;8.286;2022-09-27T18:08:54;4.27;;;1.47;;
75025;SDS011;63591;50.080;8.286;2022-09-27T18:11:22;4.18;;;1.45;;
75025;SDS011;63591;50.080;8.286;2022-09-27T18:13:54;4.80;;;1.20;;
75025;SDS011;63591;50.080;8.286;2022-09-27T18:16:22;4.10;;;1.33;;
75025;SDS011;63591;50.080;8.286;2022-09-27T18:18:53;8.55;;;1.88;;
75025;SDS011;63591;50.080;8.286;2022-09-27T18:21:19;7.10;;;1.33;;
75025;SDS011;63591;50.080;8.286;2022-09-27T18:23:46;8.90;;;1.60;;
75025;SDS011;63591;50.080;8.286;2022-09-27T18:26:18;8.85;;;1.42;;
75025;SDS011;63591;50.080;8.286;2022-09-27T18:28:46;4.97;;;1.40;;
75025;SDS011;63591;50.080;8.286;2022-09-27T18:31:12;4.78;;;1.33;;
75025;SDS011;63591;50.080;8.286;2022-09-27T18:33:40;9.82;;;1.70;;
75025;SDS011;63591;50.080;8.286;2022-09-27T18:38:34;8.40;;;1.98;;
75025;SDS011;63591;50.080;8.286;2022-09-27T18:41:09;9.60;;;2.00;;
75025;SDS011;63591;50.080;8.286;2022-09-27T18:43:43;7.90;;;1.83;;
75025;SDS011;63591;50.080;8.286;2022-09-27T18:46:11;7.95;;;1.80;;
75025;SDS011;63591;50.080;8.286;2022-09-27T18:48:39;8.75;;;2.05;;
75025;SDS011;63591;50.080;8.286;2022-09-27T18:51:06;10.48;;;2.20;;
75025;SDS011;63591;50.080;8.286;2022-09-27T18:53:34;8.40;;;1.90;;
75025;SDS011;63591;50.080;8.286;2022-09-27T18:56:03;8.35;;;1.90;;
75025;SDS011;63591;50.080;8.286;2022-09-27T18:58:31;7.32;;;2.10;;
75025;SDS011;63591;50.080;8.286;2022-09-27T19:00:58;8.13;;;2.00;;
75025;SDS011;63591;50.080;8.286;2022-09-27T19:03:24;7.88;;;2.05;;
75025;SDS011;63591;50.080;8.286;2022-09-27T19:05:54;7.17;;;2.00;;
75025;SDS011;63591;50.080;8.286;2022-09-27T19:08:20;6.90;;;1.98;;
75025;SDS011;63591;50.080;8.286;2022-09-27T19:10:46;9.93;;;1.80;;
75025;SDS011;63591;50.080;8.286;2022-09-27T19:13:11;8.47;;;2.10;;
75025;SDS011;63591;50.080;8.286;2022-09-27T19:15:36;7.33;;;1.80;;
75025;SDS011;63591;50.080;8.286;2022-09-27T19:18:01;8.40;;;2.00;;
75025;SDS011;63591;50.080;8.286;2022-09-27T19:20:27;7.15;;;1.70;;
75025;SDS011;63591;50.080;8.286;2022-09-27T19:22:53;6.43;;;1.90;;
75025;SDS011;63591;50.080;8.286;2022-09-27T19:25:18;5.18;;;1.70;;
75025;SDS011;63591;50.080;8.286;2022-09-27T19:27:44;6.37;;;1.90;;
75025;SDS011;63591;50.080;8.286;2022-09-27T19:30:09;7.27;;;1.70;;
75025;SDS011;63591;50.080;8.286;2022-09-27T19:32:35;5.37;;;1.90;;
75025;SDS011;63591;50.080;8.286;2022-09-27T19:35:00;5.60;;;1.93;;
75025;SDS011;63591;50.080;8.286;2022-09-27T19:37:26;5.90;;;1.80;;
75025;SDS011;63591;50.080;8.286;2022-09-27T19:39:51;6.17;;;1.70;;
75025;SDS011;63591;50.080;8.286;2022-09-27T19:42:17;6.97;;;1.75;;
75025;SDS011;63591;50.080;8.286;2022-09-27T19:44:42;6.83;;;1.93;;
75025;SDS011;63591;50.080;8.286;2022-09-27T19:47:09;8.48;;;1.70;;
75025;SDS011;63591;50.080;8.286;2022-09-27T19:49:34;6.87;;;1.70;;
75025;SDS011;63591;50.080;8.286;2022-09-27T19:52:00;5.97;;;1.73;;
75025;SDS011;63591;50.080;8.286;2022-09-27T19:54:26;6.20;;;1.75;;
75025;SDS011;63591;50.080;8.286;2022-09-27T19:56:51;5.43;;;1.87;;
75025;SDS011;63591;50.080;8.286;2022-09-27T19:59:16;6.93;;;1.90;;
75025;SDS011;63591;50.080;8.286;2022-09-27T20:01:42;8.10;;;1.90;;
75025;SDS011;63591;50.080;8.286;2022-09-27T20:04:09;6.38;;;1.80;;
75025;SDS011;63591;50.080;8.286;2022-09-27T20:06:36;7.50;;;2.00;;
75025;SDS011;63591;50.080;8.286;2022-09-27T20:09:02;10.00;;;1.88;;
75025;SDS011;63591;50.080;8.286;2022-09-27T20:11:28;10.93;;;2.20;;
75025;SDS011;63591;50.080;8.286;2022-09-27T20:13:55;19.90;;;2.42;;
75025;SDS011;63591;50.080;8.286;2022-09-27T20:16:21;10.55;;;2.17;;
75025;SDS011;63591;50.080;8.286;2022-09-27T20:18:52;12.02;;;2.38;;
75025;SDS011;63591;50.080;8.286;2022-09-27T20:21:19;11.53;;;2.00;;
75025;SDS011;63591;50.080;8.286;2022-09-27T20:23:49;15.38;;;2.30;;
75025;SDS011;63591;50.080;8.286;2022-09-27T20:26:16;8.30;;;2.28;;
75025;SDS011;63591;50.080;8.286;2022-09-27T20:28:49;10.18;;;2.25;;
75025;SDS011;63591;50.080;8.286;2022-09-27T20:31:17;18.33;;;2.30;;
75025;SDS011;63591;50.080;8.286;2022-09-27T20:33:44;9.07;;;1.97;;
75025;SDS011;63591;50.080;8.286;2022-09-27T20:38:42;7.70;;;2.13;;
75025;SDS011;63591;50.080;8.286;2022-09-27T20:41:09;10.00;;;2.20;;
75025;SDS011;63591;50.080;8.286;2022-09-27T20:43:36;10.38;;;1.80;;
75025;SDS011;63591;50.080;8.286;2022-09-27T20:46:06;7.73;;;2.00;;
75025;SDS011;63591;50.080;8.286;2022-09-27T20:48:34;8.32;;;2.25;;
75025;SDS011;63591;50.080;8.286;2022-09-27T20:51:01;7.80;;;2.22;;
75025;SDS011;63591;50.080;8.286;2022-09-27T20:53:26;5.50;;;1.83;;
75025;SDS011;63591;50.080;8.286;2022-09-27T20:55:53;9.38;;;2.10;;
75025;SDS011;63591;50.080;8.286;2022-09-27T20:58:19;8.65;;;2.10;;
75025;SDS011;63591;50.080;8.286;2022-09-27T21:00:44;6.87;;;2.03;;
75025;SDS011;63591;50.080;8.286;2022-09-27T21:03:10;8.73;;;1.73;;
75025;SDS011;63591;50.080;8.286;2022-09-27T21:05:35;7.60;;;1.87;;
75025;SDS011;63591;50.080;8.286;2022-09-27T21:08:01;7.00;;;1.90;;
75025;SDS011;63591;50.080;8.286;2022-09-27T21:10:26;9.83;;;1.70;;
75025;SDS011;63591;50.080;8.286;2022-09-27T21:12:51;7.33;;;1.90;;
75025;SDS011;63591;50.080;8.286;2022-09-27T21:15:16;6.63;;;2.00;;
75025;SDS011;63591;50.080;8.286;2022-09-27T21:17:42;6.17;;;1.87;;
75025;SDS011;63591;50.080;8.286;2022-09-27T21:20:07;7.90;;;1.70;;
75025;SDS011;63591;50.080;8.286;2022-09-27T21:22:34;6.97;;;1.80;;
75025;SDS011;63591;50.080;8.286;2022-09-27T21:24:59;6.53;;;1.70;;
75025;SDS011;63591;50.080;8.286;2022-09-27T21:27:24;7.40;;;1.97;;
75025;SDS011;63591;50.080;8.286;2022-09-27T21:29:50;5.70;;;1.50;;
75025;SDS011;63591;50.080;8.286;2022-09-27T21:32:15;5.53;;;1.80;;
75025;SDS011;63591;50.080;8.286;2022-09-27T21:34:40;8.90;;;1.90;;
75025;SDS011;63591;50.080;8.286;2022-09-27T21:37:05;9.63;;;1.70;;
75025;SDS011;63591;50.080;8.286;2022-09-27T21:39:31;7.30;;;1.70;;
75025;SDS011;63591;50.080;8.286;2022-09-27T21:41:56;6.87;;;1.63;;
75025;SDS011;63591;50.080;8.286;2022-09-27T21:44:21;7.50;;;1.90;;
75025;SDS011;63591;50.080;8.286;2022-09-27T21:46:47;6.33;;;1.80;;
75025;SDS011;63591;50.080;8.286;2022-09-27T21:49:14;7.20;;;1.60;;
75025;SDS011;63591;50.080;8.286;2022-09-27T21:51:39;18.07;;;1.90;;
75025;SDS011;63591;50.080;8.286;2022-09-27T21:54:07;9.13;;;2.03;;
75025;SDS011;63591;50.080;8.286;2022-09-27T21:56:35;5.65;;;1.70;;
75025;SDS011;63591;50.080;8.286;2022-09-27T21:59:02;6.13;;;1.65;;
75025;SDS011;63591;50.080;8.286;2022-09-27T22:01:29;10.20;;;1.70;;
75025;SDS011;63591;50.080;8.286;2022-09-27T22:03:56;6.32;;;1.88;;
